Time;durP1;ratioP1;P1;durP2;ratioP2;P2;SDS_P1;SDS_P2;PMS_P1;PMS_P2;Temp;Humidity;BMP_temperature;BMP_pressure;BME280_temperature;BME280_humidity;BME280_pressure;Samples;Min_cycle;Max_cycle;Signal;HPM_P1;HPM_P2
2022/08/27 00:00:24;;;;;;;2.10;1.00;;;;;;;14.15;100.00;101212.75;5035647;28;20021;-49
2022/08/27 00:02:49;;;;;;;4.03;1.02;;;;;;;14.16;100.00;101206.38;5043674;28;20365;-51
2022/08/27 00:05:16;;;;;;;0.93;0.68;;;;;;;14.18;100.00;101212.34;5038702;28;20475;-48
2022/08/27 00:07:42;;;;;;;2.10;1.33;;;;;;;14.18;100.00;101212.34;5034790;28;20475;-48
2022/08/27 00:10:12;;;;;;;4.97;1.38;;;;;;;14.15;100.00;101203.94;5040003;28;20675;-51
2022/08/27 00:12:38;;;;;;;3.03;1.40;;;;;;;14.14;100.00;101207.59;5037212;28;20064;-53
2022/08/27 00:15:05;;;;;;;3.25;0.80;;;;;;;14.08;100.00;101203.88;5033543;28;20037;-49
2022/08/27 00:17:32;;;;;;;2.22;0.98;;;;;;;14.04;100.00;101213.28;5034924;28;20060;-50
2022/08/27 00:19:57;;;;;;;3.35;0.98;;;;;;;14.00;100.00;101206.72;5039123;28;20037;-50
2022/08/27 00:22:22;;;;;;;2.72;1.20;;;;;;;13.97;100.00;101207.09;5033420;28;20537;-50
2022/08/27 00:24:48;;;;;;;2.80;0.90;;;;;;;13.98;100.00;101206.06;5043883;28;20029;-50
2022/08/27 00:27:13;;;;;;;2.88;0.88;;;;;;;14.00;100.00;101200.56;5044700;28;20033;-51
2022/08/27 00:29:39;;;;;;;5.72;1.20;;;;;;;14.00;100.00;101198.72;5037538;28;20029;-52
2022/08/27 00:32:04;;;;;;;1.33;0.90;;;;;;;14.03;100.00;101200.97;5032382;28;20037;-55
2022/08/27 00:34:30;;;;;;;1.67;1.10;;;;;;;14.04;100.00;101197.28;5037809;28;20075;-48
2022/08/27 00:36:55;;;;;;;1.83;0.70;;;;;;;14.03;100.00;101203.66;5037886;28;20041;-54
2022/08/27 00:39:21;;;;;;;2.05;1.08;;;;;;;14.02;100.00;101198.50;5035983;28;20064;-49
2022/08/27 00:41:47;;;;;;;0.88;0.77;;;;;;;13.97;100.00;101196.44;5040304;28;20067;-53
2022/08/27 00:44:13;;;;;;;2.33;1.15;;;;;;;13.94;100.00;101195.00;5040378;28;20070;-49
2022/08/27 00:46:44;;;;;;;2.03;0.93;;;;;;;13.91;100.00;101183.88;5039529;28;20249;-51
2022/08/27 00:49:17;;;;;;;1.08;0.43;;;;;;;13.87;100.00;101195.97;5039300;28;20048;-48
2022/08/27 00:51:51;;;;;;;0.70;0.65;;;;;;;13.78;100.00;101189.94;5033174;28;20279;-50
2022/08/27 00:54:16;;;;;;;1.55;1.05;;;;;;;13.73;100.00;101187.88;5030911;28;20798;-53
2022/08/27 00:56:43;;;;;;;2.38;1.17;;;;;;;13.71;100.00;101187.25;5044373;28;20107;-51
2022/08/27 00:59:13;;;;;;;1.38;0.90;;;;;;;13.67;100.00;101185.16;5039207;28;20413;-51
2022/08/27 01:02:17;;;;;;;4.30;0.85;;;;;;;13.62;100.00;101184.91;5038463;28;20413;-50
2022/08/27 01:04:25;;;;;;;1.50;0.70;;;;;;;13.56;100.00;101183.84;5028435;28;20047;-52
2022/08/27 01:06:51;;;;;;;8.57;1.33;;;;;;;13.50;100.00;101179.28;5042462;28;20021;-52
2022/08/27 01:09:17;;;;;;;4.05;0.82;;;;;;;13.42;100.00;101182.09;5031501;28;20534;-51
2022/08/27 01:11:43;;;;;;;1.58;0.82;;;;;;;13.35;100.00;101184.72;5033534;28;20136;-51
2022/08/27 01:14:09;;;;;;;1.08;0.77;;;;;;;13.30;100.00;101184.47;5040874;28;20033;-53
2022/08/27 01:16:38;;;;;;;3.20;0.77;;;;;;;13.25;100.00;101177.00;5026874;28;20048;-53
2022/08/27 01:19:09;;;;;;;2.25;1.15;;;;;;;13.20;100.00;101179.44;5033980;28;20060;-53
2022/08/27 01:21:44;;;;;;;1.15;0.70;;;;;;;13.18;100.00;101191.28;5037061;28;20053;-52
2022/08/27 01:24:18;;;;;;;2.90;0.40;;;;;;;13.13;100.00;101191.84;5043098;28;20393;-52
2022/08/27 01:26:43;;;;;;;4.68;0.73;;;;;;;13.09;100.00;101188.75;5035854;28;20025;-53
2022/08/27 01:29:09;;;;;;;1.17;0.93;;;;;;;13.04;100.00;101190.34;5034087;28;20108;-54
2022/08/27 01:31:34;;;;;;;2.42;0.88;;;;;;;12.96;100.00;101191.28;5037875;28;20061;-52
2022/08/27 01:34:04;;;;;;;2.17;0.57;;;;;;;12.89;100.00;101190.38;5033371;28;20106;-51
2022/08/27 01:36:30;;;;;;;5.90;1.70;;;;;;;12.84;100.00;101190.13;5035978;28;20029;-49
2022/08/27 01:38:56;;;;;;;0.60;0.45;;;;;;;12.80;100.00;101184.38;5033018;28;20393;-54
2022/08/27 01:41:23;;;;;;;1.23;0.80;;;;;;;12.77;100.00;101197.22;5035788;28;20124;-57
2022/08/27 01:43:49;;;;;;;1.55;1.00;;;;;;;12.77;100.00;101192.72;5036932;28;20025;-51
2022/08/27 01:46:14;;;;;;;5.50;1.27;;;;;;;12.73;100.00;101202.09;5043974;28;20082;-52
2022/08/27 01:48:40;;;;;;;1.08;1.05;;;;;;;12.67;100.00;101194.84;5043744;28;20036;-50
2022/08/27 01:51:05;;;;;;;2.08;1.05;;;;;;;12.60;100.00;101192.13;5035839;28;20057;-49
2022/08/27 01:53:31;;;;;;;2.00;1.10;;;;;;;12.56;100.00;101198.00;5041612;28;20047;-51
2022/08/27 01:55:57;;;;;;;2.65;0.75;;;;;;;12.55;100.00;101209.66;5028665;28;20037;-50
2022/08/27 01:58:26;;;;;;;2.75;0.88;;;;;;;12.48;100.00;101208.75;5041943;28;20108;-49
2022/08/27 02:00:55;;;;;;;3.08;1.15;;;;;;;12.45;100.00;101204.63;5040695;28;20135;-50
2022/08/27 02:03:20;;;;;;;4.43;1.30;;;;;;;12.38;100.00;101204.53;5041390;28;20033;-53
2022/08/27 02:05:47;;;;;;;1.95;1.85;;;;;;;12.31;100.00;101200.13;5047802;28;20405;-52
2022/08/27 02:08:15;;;;;;;3.70;0.85;;;;;;;12.26;100.00;101200.69;5045749;28;20028;-54
2022/08/27 02:10:42;;;;;;;1.10;0.73;;;;;;;12.22;100.00;101205.56;5040516;28;20501;-48
2022/08/27 02:13:07;;;;;;;1.73;1.15;;;;;;;12.18;100.00;101198.97;5040066;28;20053;-52
2022/08/27 02:15:35;;;;;;;1.98;0.77;;;;;;;12.14;100.00;101203.00;5042351;28;20470;-55
2022/08/27 02:18:00;;;;;;;5.93;1.35;;;;;;;12.12;100.00;101205.00;5035488;28;20037;-50
2022/08/27 02:20:27;;;;;;;1.98;0.85;;;;;;;12.09;100.00;101196.59;5045443;28;20013;-50
2022/08/27 02:22:52;;;;;;;2.20;1.25;;;;;;;12.07;100.00;101194.09;5038065;28;20104;-54
2022/08/27 02:25:19;;;;;;;2.08;1.27;;;;;;;12.04;100.00;101198.97;5038752;28;20163;-52
2022/08/27 02:27:46;;;;;;;2.58;1.05;;;;;;;12.01;100.00;101200.16;5039705;28;20033;-51
2022/08/27 02:30:15;;;;;;;2.10;0.50;;;;;;;11.95;100.00;101201.72;5049247;28;20021;-54
2022/08/27 02:32:40;;;;;;;1.35;0.90;;;;;;;11.93;100.00;101203.72;5043899;28;20120;-52
2022/08/27 02:35:07;;;;;;;2.55;1.02;;;;;;;11.92;100.00;101206.56;5042183;28;20116;-49
2022/08/27 02:37:33;;;;;;;2.88;0.88;;;;;;;11.89;100.00;101204.25;5040947;28;20021;-49
2022/08/27 02:40:00;;;;;;;1.67;0.80;;;;;;;11.83;100.00;101205.78;5046101;28;20604;-51
2022/08/27 02:42:26;;;;;;;2.00;0.80;;;;;;;11.82;100.00;101203.31;5035838;28;20037;-50
2022/08/27 02:44:53;;;;;;;3.53;2.67;;;;;;;11.79;100.00;101200.00;5049898;28;20375;-50
2022/08/27 02:47:18;;;;;;;1.85;1.15;;;;;;;11.78;100.00;101197.53;5041274;28;20039;-49
2022/08/27 02:49:43;;;;;;;3.10;1.25;;;;;;;11.75;100.00;101203.22;5038535;28;20037;-53
2022/08/27 02:52:10;;;;;;;2.17;0.80;;;;;;;11.75;100.00;101205.88;5036588;28;20025;-50
2022/08/27 02:54:36;;;;;;;2.08;0.98;;;;;;;11.73;100.00;101207.88;5042820;28;20039;-52
2022/08/27 02:57:01;;;;;;;5.93;1.52;;;;;;;11.73;100.00;101210.53;5041606;28;20038;-55
2022/08/27 02:59:27;;;;;;;3.30;0.88;;;;;;;11.72;100.00;101207.06;5043191;28;20116;-54
2022/08/27 03:01:52;;;;;;;2.80;1.73;;;;;;;11.75;100.00;101205.88;5038332;28;20394;-53
2022/08/27 03:04:18;;;;;;;1.13;0.70;;;;;;;11.76;100.00;101210.16;5043877;28;20021;-53
2022/08/27 03:06:44;;;;;;;2.60;1.63;;;;;;;11.77;100.00;101211.81;5038540;28;20013;-53
2022/08/27 03:09:10;;;;;;;2.45;1.00;;;;;;;11.81;100.00;101214.94;5049102;28;20080;-51
2022/08/27 03:11:36;;;;;;;3.15;1.58;;;;;;;11.86;100.00;101217.88;5038259;28;20503;-52
2022/08/27 03:14:01;;;;;;;2.72;0.90;;;;;;;11.87;100.00;101220.38;5034695;28;20029;-48
2022/08/27 03:16:26;;;;;;;2.40;1.27;;;;;;;11.89;100.00;101218.38;5033047;28;20090;-52
2022/08/27 03:18:52;;;;;;;0.70;0.70;;;;;;;11.89;100.00;101215.72;5043283;28;20509;-54
2022/08/27 03:21:22;;;;;;;4.25;1.02;;;;;;;11.91;100.00;101213.69;5038392;28;20039;-50
2022/08/27 03:23:48;;;;;;;0.65;0.65;;;;;;;11.92;100.00;101211.88;5030798;28;20037;-51
2022/08/27 03:26:14;;;;;;;2.88;1.45;;;;;;;11.93;100.00;101210.88;5042545;28;20025;-53
2022/08/27 03:28:39;;;;;;;7.38;1.70;;;;;;;11.93;100.00;101211.69;5040572;28;20029;-54
2022/08/27 03:31:12;;;;;;;2.25;1.13;;;;;;;11.94;100.00;101200.03;5037868;28;20025;-51
2022/08/27 03:33:38;;;;;;;4.40;0.80;;;;;;;11.93;100.00;101209.03;5045726;28;20076;-53
2022/08/27 03:36:06;;;;;;;3.78;0.57;;;;;;;11.92;100.00;101207.38;5035879;28;20033;-53
2022/08/27 03:38:32;;;;;;;8.57;1.13;;;;;;;11.91;100.00;101211.03;5032000;28;20059;-54
2022/08/27 03:40:58;;;;;;;1.15;1.05;;;;;;;11.91;100.00;101205.72;5046245;28;20061;-53
2022/08/27 03:43:24;;;;;;;3.08;0.93;;;;;;;11.91;100.00;101207.56;5044846;28;20063;-50
2022/08/27 03:45:51;;;;;;;2.53;1.10;;;;;;;11.87;100.00;101209.75;5034455;28;20525;-53
2022/08/27 03:48:17;;;;;;;2.55;0.82;;;;;;;11.83;100.00;101208.44;5039361;28;20033;-51
2022/08/27 03:50:45;;;;;;;3.85;1.30;;;;;;;11.77;100.00;101203.84;5032630;28;20025;-50
2022/08/27 03:53:12;;;;;;;4.95;0.77;;;;;;;11.73;100.00;101208.69;5030694;28;20049;-52
2022/08/27 03:55:37;;;;;;;1.70;1.05;;;;;;;11.68;100.00;101207.59;5040728;28;20094;-51
2022/08/27 03:58:02;;;;;;;3.05;1.20;;;;;;;11.63;100.00;101210.78;5038436;28;20037;-50
2022/08/27 04:00:28;;;;;;;4.43;1.45;;;;;;;11.57;100.00;101209.69;5041438;28;20091;-51
2022/08/27 04:02:54;;;;;;;1.40;1.20;;;;;;;11.53;100.00;101218.19;5036258;28;20501;-52
2022/08/27 04:05:21;;;;;;;3.22;0.73;;;;;;;11.49;100.00;101219.56;5040980;28;20132;-53
2022/08/27 04:07:48;;;;;;;2.08;0.98;;;;;;;11.49;100.00;101217.72;5030574;28;20029;-50
2022/08/27 04:10:15;;;;;;;2.80;1.20;;;;;;;11.50;100.00;101210.56;5039881;28;20095;-50
2022/08/27 04:12:41;;;;;;;3.13;1.00;;;;;;;11.48;100.00;101212.56;5037357;28;20045;-49
2022/08/27 04:15:08;;;;;;;1.95;1.67;;;;;;;11.45;100.00;101212.94;5039277;28;20025;-53
2022/08/27 04:17:33;;;;;;;1.15;1.02;;;;;;;11.41;100.00;101215.13;5041782;28;20063;-49
2022/08/27 04:19:59;;;;;;;1.10;0.85;;;;;;;11.36;100.00;101220.16;5032188;28;20037;-51
2022/08/27 04:22:26;;;;;;;1.95;0.73;;;;;;;11.31;100.00;101211.91;5043323;28;20135;-50
2022/08/27 04:24:51;;;;;;;7.47;1.70;;;;;;;11.25;100.00;101209.94;5038471;28;20528;-53
2022/08/27 04:27:17;;;;;;;8.18;1.48;;;;;;;11.18;100.00;101220.44;5035321;28;20033;-54
2022/08/27 04:29:43;;;;;;;0.93;0.93;;;;;;;11.12;100.00;101216.66;5042834;28;20036;-51
2022/08/27 04:32:09;;;;;;;4.90;0.88;;;;;;;11.05;100.00;101214.91;5038523;28;20428;-53
2022/08/27 04:34:35;;;;;;;2.90;1.20;;;;;;;10.99;100.00;101218.25;5041273;28;20429;-50
2022/08/27 04:37:01;;;;;;;6.63;1.20;;;;;;;10.95;100.00;101209.81;5035792;28;20056;-50
2022/08/27 04:39:27;;;;;;;1.85;0.70;;;;;;;10.89;100.00;101210.50;5035002;28;20021;-49
2022/08/27 04:41:55;;;;;;;0.93;0.68;;;;;;;10.82;100.00;101209.56;5038275;28;20033;-50
2022/08/27 04:44:21;;;;;;;2.25;1.02;;;;;;;10.74;100.00;101205.13;5038932;28;20439;-52
2022/08/27 04:46:47;;;;;;;1.70;0.90;;;;;;;10.68;100.00;101206.63;5030743;28;20029;-50
2022/08/27 04:49:14;;;;;;;1.52;0.93;;;;;;;10.66;100.00;101206.00;5036265;28;20032;-51
2022/08/27 04:51:41;;;;;;;0.90;0.90;;;;;;;10.67;100.00;101212.13;5032096;28;20033;-50
2022/08/27 04:54:08;;;;;;;1.38;0.80;;;;;;;10.65;100.00;101207.00;5027760;28;20785;-49
2022/08/27 04:56:34;;;;;;;0.90;0.90;;;;;;;10.61;100.00;101211.00;5034487;28;20040;-51
2022/08/27 04:59:02;;;;;;;1.50;1.17;;;;;;;10.57;100.00;101217.66;5034571;28;20063;-53
2022/08/27 05:01:28;;;;;;;2.35;1.58;;;;;;;10.54;100.00;101218.00;5036079;28;20033;-51
2022/08/27 05:03:54;;;;;;;1.60;1.00;;;;;;;10.49;100.00;101220.34;5024070;28;20052;-51
2022/08/27 05:06:21;;;;;;;3.55;1.15;;;;;;;10.44;100.00;101217.38;5031585;28;20115;-51
2022/08/27 05:08:48;;;;;;;5.22;1.13;;;;;;;10.42;100.00;101214.06;5036211;28;20367;-52
2022/08/27 05:11:16;;;;;;;3.60;1.60;;;;;;;10.39;100.00;101211.75;5042924;28;20052;-53
2022/08/27 05:13:42;;;;;;;2.33;1.55;;;;;;;10.40;100.00;101216.91;5034141;28;20022;-48
2022/08/27 05:16:12;;;;;;;6.53;1.13;;;;;;;10.38;100.00;101218.06;5036696;28;20051;-53
2022/08/27 05:18:39;;;;;;;0.85;0.85;;;;;;;10.34;100.00;101222.06;5037057;28;20024;-54
2022/08/27 05:21:06;;;;;;;2.15;1.95;;;;;;;10.29;100.00;101221.75;5030938;28;20021;-51
2022/08/27 05:23:32;;;;;;;2.40;1.60;;;;;;;10.26;100.00;101223.69;5038500;28;20090;-53
2022/08/27 05:25:58;;;;;;;4.88;1.25;;;;;;;10.24;100.00;101228.34;5040108;28;20101;-54
2022/08/27 05:28:25;;;;;;;3.17;2.35;;;;;;;10.25;100.00;101226.53;5036687;28;20112;-56
2022/08/27 05:30:53;;;;;;;1.23;1.05;;;;;;;10.22;100.00;101218.91;5040036;28;20025;-51
2022/08/27 05:33:22;;;;;;;2.42;1.17;;;;;;;10.24;100.00;101228.34;5037342;28;20069;-52
2022/08/27 05:35:50;;;;;;;1.25;1.20;;;;;;;10.23;100.00;101229.34;5036336;28;20482;-52
2022/08/27 05:38:19;;;;;;;1.33;1.23;;;;;;;10.22;100.00;101227.69;5032671;28;20037;-53
2022/08/27 05:40:46;;;;;;;1.55;1.45;;;;;;;10.27;100.00;101235.13;5036505;28;20449;-48
2022/08/27 05:43:16;;;;;;;1.92;0.88;;;;;;;10.32;100.00;101234.66;5043206;28;20156;-49
2022/08/27 05:45:44;;;;;;;4.07;1.17;;;;;;;10.34;100.00;101235.31;5043012;28;20122;-50
2022/08/27 05:48:10;;;;;;;0.77;0.70;;;;;;;10.36;100.00;101241.28;5036113;28;20037;-51
2022/08/27 05:50:37;;;;;;;2.03;1.70;;;;;;;10.38;100.00;101241.94;5038492;28;20433;-53
2022/08/27 05:53:03;;;;;;;1.30;1.13;;;;;;;10.41;100.00;101238.94;5031999;28;20061;-54
2022/08/27 05:55:28;;;;;;;2.83;1.73;;;;;;;10.42;100.00;101246.69;5034269;28;20064;-50
2022/08/27 05:57:53;;;;;;;5.43;1.48;;;;;;;10.40;100.00;101248.72;5031260;28;20038;-50
2022/08/27 06:03:22;;;;;;;3.13;1.20;;;;;;;10.38;100.00;101245.41;5023938;28;20418;-51
2022/08/27 06:05:48;;;;;;;1.85;1.75;;;;;;;10.39;100.00;101252.34;5022782;28;20028;-53
2022/08/27 06:08:13;;;;;;;1.83;1.73;;;;;;;10.44;100.00;101254.50;5024340;28;20457;-50
2022/08/27 06:10:41;;;;;;;1.92;1.20;;;;;;;10.46;100.00;101247.19;5035614;28;20443;-52
2022/08/27 06:13:06;;;;;;;1.80;1.70;;;;;;;10.53;100.00;101247.31;5033022;28;20053;-54
2022/08/27 06:15:31;;;;;;;1.25;1.15;;;;;;;10.59;100.00;101252.78;5036364;28;20425;-53
2022/08/27 06:17:57;;;;;;;3.47;1.73;;;;;;;10.62;100.00;101257.72;5040486;28;20517;-52
2022/08/27 06:20:22;;;;;;;1.77;1.67;;;;;;;10.70;100.00;101259.53;5034729;28;20041;-52
2022/08/27 06:22:47;;;;;;;1.77;1.60;;;;;;;10.75;100.00;101256.34;5034136;28;20088;-53
2022/08/27 06:25:13;;;;;;;2.97;1.42;;;;;;;10.79;100.00;101260.31;5040509;28;20020;-53
2022/08/27 06:27:39;;;;;;;1.55;1.45;;;;;;;10.84;100.00;101257.94;5038055;28;20079;-52
2022/08/27 06:30:04;;;;;;;1.17;1.08;;;;;;;10.88;100.00;101254.78;5032482;28;20036;-50
2022/08/27 06:32:30;;;;;;;1.70;1.30;;;;;;;10.95;100.00;101254.94;5039659;28;20044;-52
2022/08/27 06:34:55;;;;;;;1.90;1.70;;;;;;;11.06;100.00;101265.13;5034411;28;20511;-54
2022/08/27 06:37:20;;;;;;;2.08;1.55;;;;;;;11.19;100.00;101263.75;5034895;28;20363;-53
2022/08/27 06:39:46;;;;;;;3.38;1.92;;;;;;;11.32;100.00;101264.81;5036696;28;20033;-54
2022/08/27 06:42:12;;;;;;;4.20;1.40;;;;;;;11.46;100.00;101260.56;5038158;28;20100;-50
2022/08/27 06:44:37;;;;;;;3.30;1.95;;;;;;;11.59;100.00;101270.59;5040129;28;20056;-49
2022/08/27 06:47:03;;;;;;;2.90;1.98;;;;;;;11.73;100.00;101268.97;5039652;28;20470;-51
2022/08/27 06:49:29;;;;;;;3.05;2.85;;;;;;;11.85;100.00;101272.00;5039006;28;20034;-55
2022/08/27 06:51:55;;;;;;;3.60;2.35;;;;;;;11.97;100.00;101268.78;5037307;28;20041;-49
2022/08/27 06:54:20;;;;;;;3.45;2.42;;;;;;;12.13;100.00;101273.13;5036246;28;20112;-55
2022/08/27 06:56:48;;;;;;;4.38;2.15;;;;;;;12.23;100.00;101272.84;5039785;28;20029;-49
2022/08/27 06:59:17;;;;;;;2.38;2.17;;;;;;;12.42;100.00;101271.50;5041415;28;20534;-50
2022/08/27 07:01:46;;;;;;;1.88;1.77;;;;;;;12.57;100.00;101274.97;5021501;28;20040;-51
2022/08/27 07:04:15;;;;;;;2.53;1.60;;;;;;;12.70;100.00;101274.31;5034709;28;20310;-51
2022/08/27 07:06:41;;;;;;;2.40;2.08;;;;;;;12.88;100.00;101288.06;5042522;28;20499;-51
2022/08/27 07:09:07;;;;;;;4.03;1.95;;;;;;;13.05;100.00;101278.00;5028985;28;20112;-51
2022/08/27 07:11:33;;;;;;;3.88;1.55;;;;;;;13.26;100.00;101279.88;5035743;28;20077;-52
2022/08/27 07:13:59;;;;;;;1.55;1.35;;;;;;;13.50;100.00;101285.84;5043386;28;20113;-54
2022/08/27 07:16:26;;;;;;;2.10;2.00;;;;;;;13.71;100.00;101283.19;5047649;28;20032;-54
2022/08/27 07:18:54;;;;;;;7.43;3.00;;;;;;;13.93;100.00;101278.63;5036524;28;20068;-50
2022/08/27 07:21:20;;;;;;;4.75;2.15;;;;;;;14.19;100.00;101286.00;5043429;28;20119;-53
2022/08/27 07:23:47;;;;;;;6.20;1.95;;;;;;;14.39;100.00;101283.47;5035263;28;20030;-54
2022/08/27 07:26:13;;;;;;;3.10;2.13;;;;;;;14.56;100.00;101281.34;5037198;28;20018;-52
2022/08/27 07:28:41;;;;;;;1.95;1.80;;;;;;;14.71;100.00;101277.69;5040725;28;20029;-55
2022/08/27 07:31:09;;;;;;;1.67;1.58;;;;;;;14.77;100.00;101277.72;5033503;28;20021;-51
2022/08/27 07:33:36;;;;;;;5.25;1.90;;;;;;;14.83;100.00;101282.25;5040730;28;20033;-56
2022/08/27 07:36:03;;;;;;;2.53;2.10;;;;;;;14.91;100.00;101278.59;5029615;28;20037;-57
2022/08/27 07:38:28;;;;;;;4.32;2.10;;;;;;;15.03;100.00;101278.84;5039226;28;20471;-56
2022/08/27 07:40:54;;;;;;;3.17;2.08;;;;;;;15.38;100.00;101284.88;5044930;28;20040;-53
2022/08/27 07:46:04;;;;;;;1.88;1.60;;;;;;;16.27;100.00;101283.66;5043074;28;20432;-53
2022/08/27 07:48:32;;;;;;;8.48;2.72;;;;;;;16.70;100.00;101276.94;5041603;28;20099;-48
2022/08/27 07:50:58;;;;;;;3.55;2.13;;;;;;;17.11;100.00;101263.16;5036412;28;20053;-50
2022/08/27 07:53:24;;;;;;;5.25;2.83;;;;;;;17.50;100.00;101244.34;5040769;28;20064;-54
2022/08/27 07:55:49;;;;;;;3.20;1.42;;;;;;;17.87;100.00;101223.88;5037267;28;20037;-51
2022/08/27 07:58:15;;;;;;;4.50;1.92;;;;;;;18.03;100.00;101215.22;5043676;28;20022;-52
2022/08/27 08:00:42;;;;;;;5.07;1.55;;;;;;;18.07;100.00;101197.66;5042356;28;20025;-53
2022/08/27 08:03:07;;;;;;;3.08;1.40;;;;;;;17.99;100.00;101200.63;5038510;28;20087;-53
2022/08/27 08:05:33;;;;;;;1.30;1.20;;;;;;;18.09;100.00;101206.28;5030910;28;20041;-51
2022/08/27 08:07:58;;;;;;;5.38;0.98;;;;;;;18.30;100.00;101194.28;5029601;28;20056;-50
2022/08/27 08:10:24;;;;;;;9.77;1.67;;;;;;;18.39;100.00;101199.34;5037610;28;20112;-49
2022/08/27 08:12:50;;;;;;;14.80;3.28;;;;;;;18.24;100.00;101187.13;5036011;28;20715;-51
2022/08/27 08:15:16;;;;;;;3.47;0.77;;;;;;;18.19;100.00;101202.25;5024430;28;20518;-54
2022/08/27 08:17:42;;;;;;;3.22;0.88;;;;;;;18.20;100.00;101201.22;5027958;28;20025;-51
2022/08/27 08:20:10;;;;;;;2.85;1.38;;;;;;;18.22;100.00;101193.75;5030314;28;20037;-52
2022/08/27 08:22:36;;;;;;;2.53;1.83;;;;;;;18.17;100.00;101202.47;5030546;28;20790;-51
2022/08/27 08:25:03;;;;;;;3.95;1.17;;;;;;;18.07;100.00;101191.44;5034035;28;20068;-49
2022/08/27 08:27:29;;;;;;;1.85;1.02;;;;;;;18.03;100.00;101195.63;5029760;28;20712;-52
2022/08/27 08:29:54;;;;;;;2.05;0.60;;;;;;;18.02;100.00;101207.41;5031627;28;20037;-50
2022/08/27 08:32:20;;;;;;;3.13;1.25;;;;;;;17.99;100.00;101195.28;5030899;28;20043;-51
2022/08/27 08:34:45;;;;;;;1.60;1.10;;;;;;;18.02;100.00;101205.56;5035091;28;20425;-53
2022/08/27 08:37:13;;;;;;;1.95;1.50;;;;;;;18.07;100.00;101200.34;5034336;28;20346;-48
2022/08/27 08:39:39;;;;;;;2.80;0.98;;;;;;;18.17;100.00;101183.69;5022344;28;20021;-48
2022/08/27 08:42:09;;;;;;;0.93;0.68;;;;;;;18.22;100.00;101189.22;5035131;28;20040;-53
2022/08/27 08:44:40;;;;;;;4.80;1.50;;;;;;;18.35;100.00;101193.59;5035011;28;20131;-54
2022/08/27 08:47:18;;;;;;;1.42;1.15;;;;;;;18.70;100.00;101193.78;5037210;28;20442;-53
2022/08/27 08:50:21;;;;;;;7.43;1.52;;;;;;;19.09;100.00;101180.84;5036393;28;20045;-52
2022/08/27 08:52:56;;;;;;;3.08;1.73;;;;;;;19.26;100.00;101181.00;5035554;28;20057;-51
2022/08/27 08:55:38;;;;;;;2.38;0.73;;;;;;;19.38;100.00;101175.63;5038438;28;20283;-54
2022/08/27 08:58:20;;;;;;;4.90;1.33;;;;;;;19.55;100.00;101173.88;5037691;28;20040;-49
2022/08/27 09:00:55;;;;;;;2.10;0.52;;;;;;;19.74;100.00;101174.59;5032888;28;20036;-51
2022/08/27 09:03:20;;;;;;;4.43;0.95;;;;;;;19.83;100.00;101175.09;5034419;28;20029;-51
2022/08/27 09:06:06;;;;;;;4.60;1.25;;;;;;;20.01;100.00;101174.13;5030889;28;20028;-52
2022/08/27 09:08:37;;;;;;;4.20;1.23;;;;;;;20.22;100.00;101172.66;5027766;28;20075;-51
2022/08/27 09:11:11;;;;;;;5.40;0.85;;;;;;;20.34;100.00;101168.06;5019406;28;20501;-51
2022/08/27 09:13:42;;;;;;;3.10;0.88;;;;;;;20.45;100.00;101169.09;5025649;28;20045;-54
2022/08/27 09:16:08;;;;;;;2.92;0.75;;;;;;;20.38;100.00;101169.22;5026384;28;20405;-49
2022/08/27 09:18:39;;;;;;;1.48;0.30;;;;;;;20.45;100.00;101175.28;5028619;28;20045;-51
2022/08/27 09:21:14;;;;;;;1.27;0.73;;;;;;;20.52;100.00;101175.13;5026474;28;20105;-49
2022/08/27 09:23:47;;;;;;;1.30;0.75;;;;;;;20.63;100.00;101174.31;5024929;28;20056;-50
2022/08/27 09:26:19;;;;;;;1.92;0.60;;;;;;;20.76;100.00;101175.09;5027113;28;20041;-51
2022/08/27 09:31:29;;;;;;;2.08;0.40;;;;;;;20.85;100.00;101165.53;5030379;28;20179;-48
2022/08/27 09:33:55;;;;;;;4.68;0.60;;;;;;;20.96;100.00;101164.66;5032309;28;20066;-51
2022/08/27 09:36:20;;;;;;;1.65;0.98;;;;;;;20.92;100.00;101168.91;5029234;28;20035;-52
2022/08/27 09:39:05;;;;;;;2.85;0.32;;;;;;;21.05;100.00;101168.56;5030536;28;20029;-48
2022/08/27 09:41:39;;;;;;;0.55;0.30;;;;;;;21.24;100.00;101163.75;5031934;28;20055;-53
2022/08/27 09:44:12;;;;;;;1.05;0.43;;;;;;;21.46;100.00;101163.06;5031021;28;20033;-50
2022/08/27 09:46:38;;;;;;;2.58;0.17;;;;;;;21.48;100.00;101160.94;5029594;28;20429;-53
2022/08/27 09:49:11;;;;;;;8.98;1.50;;;;;;;21.52;100.00;101164.75;5029083;28;20056;-51
2022/08/27 09:51:40;;;;;;;4.43;0.32;;;;;;;21.56;100.00;101153.22;5038019;28;20033;-54
2022/08/27 09:54:07;;;;;;;0.68;0.52;;;;;;;21.92;100.00;101152.91;5027995;28;20398;-53
2022/08/27 09:56:35;;;;;;;4.15;0.40;;;;;;;22.22;100.00;101155.19;5032793;28;20389;-51
2022/08/27 09:59:10;;;;;;;1.23;0.25;;;;;;;22.53;100.00;101144.72;5035623;28;20496;-53
2022/08/27 10:01:55;;;;;;;1.25;0.20;;;;;;;22.69;100.00;101143.81;5030989;28;20025;-50
2022/08/27 10:04:36;;;;;;;1.35;0.55;;;;;;;23.01;100.00;101145.75;5035891;28;20089;-57
2022/08/27 10:07:36;;;;;;;1.42;0.47;;;;;;;23.30;100.00;101141.63;5031962;28;20086;-52
2022/08/27 10:10:37;;;;;;;3.92;0.98;;;;;;;23.26;100.00;101147.84;5025629;28;20141;-53
2022/08/27 10:13:06;;;;;;;1.92;0.25;;;;;;;22.73;100.00;101150.31;5028910;28;20045;-56
2022/08/27 10:15:39;;;;;;;1.13;0.25;;;;;;;22.56;100.00;101147.75;5028966;28;20069;-50
2022/08/27 10:18:13;;;;;;;1.90;0.15;;;;;;;22.51;100.00;101142.28;5034479;28;20051;-52
2022/08/27 10:21:02;;;;;;;3.15;0.70;;;;;;;22.64;100.00;101141.06;5048111;28;20547;-51
2022/08/27 10:23:40;;;;;;;2.55;0.35;;;;;;;22.53;100.00;101145.53;5041582;28;20022;-47
2022/08/27 10:26:42;;;;;;;1.73;0.10;;;;;;;22.16;100.00;101148.06;5040572;28;20479;-48
2022/08/27 10:29:17;;;;;;;;;;;;;;;21.80;100.00;101147.63;5040999;28;20419;-51
2022/08/27 10:32:09;;;;;;;2.65;1.23;;;;;;;21.52;100.00;101138.59;5041562;28;20337;-50
2022/08/27 10:34:57;;;;;;;0.70;0.22;;;;;;;21.45;100.00;101143.38;5025151;28;20061;-49
2022/08/27 10:37:37;;;;;;;1.23;0.13;;;;;;;21.93;100.00;101147.25;5043102;28;20083;-54
2022/08/27 10:40:04;;;;;;;2.30;0.10;;;;;;;22.73;100.00;101136.81;5040793;28;20125;-48
2022/08/27 10:43:10;;;;;;;1.90;0.57;;;;;;;23.37;100.00;101132.50;5032754;28;20033;-50
2022/08/27 10:45:44;;;;;;;1.95;0.17;;;;;;;23.94;100.00;101126.31;5031152;28;20055;-52
2022/08/27 10:48:30;;;;;;;2.33;0.85;;;;;;;23.69;100.00;101129.69;5036934;28;20160;-48
2022/08/27 10:51:04;;;;;;;1.35;0.22;;;;;;;23.66;100.00;101130.22;5034035;28;20144;-50
2022/08/27 10:53:44;;;;;;;2.20;0.50;;;;;;;23.54;100.00;101130.41;5023352;28;20045;-52
2022/08/27 10:56:18;;;;;;;0.45;0.25;;;;;;;23.35;100.00;101134.63;5034135;28;20441;-51
2022/08/27 10:59:01;;;;;;;2.47;0.52;;;;;;;23.62;100.00;101119.13;5040908;28;20046;-54
2022/08/27 11:01:34;;;;;;;1.55;0.52;;;;;;;23.91;100.00;101116.84;5029942;28;20273;-48
2022/08/27 11:04:19;;;;;;;1.42;0.10;;;;;;;23.99;100.00;101115.50;5031735;28;20028;-50
2022/08/27 11:07:08;;;;;;;2.05;0.17;;;;;;;24.57;100.00;101118.91;5029559;28;20074;-53
2022/08/27 11:09:45;;;;;;;1.85;0.20;;;;;;;24.90;100.00;101122.19;5043885;28;20079;-50
2022/08/27 11:12:17;;;;;;;1.10;0.20;;;;;;;24.75;100.00;101124.91;5039420;28;20135;-49
2022/08/27 11:14:57;;;;;;;0.65;0.63;;;;;;;24.51;100.00;101114.59;5044336;28;20061;-50
2022/08/27 11:17:38;;;;;;;1.27;0.22;;;;;;;24.83;100.00;101116.22;5041625;28;20033;-55
2022/08/27 11:20:10;;;;;;;2.15;0.75;;;;;;;25.17;100.00;101113.81;5029008;28;20037;-55
2022/08/27 11:22:49;;;;;;;2.58;0.95;;;;;;;25.00;100.00;101105.94;5033651;28;20033;-51
2022/08/27 11:25:17;;;;;;;0.32;0.10;;;;;;;24.41;100.00;101117.25;5033612;28;20109;-46
2022/08/27 11:27:46;;;;;;;0.73;0.22;;;;;;;23.81;100.00;101113.28;5035943;28;20111;-51
2022/08/27 11:30:24;;;;;;;2.25;0.15;;;;;;;23.37;100.00;101116.25;5036488;28;20108;-51
2022/08/27 11:33:06;;;;;;;0.47;0.00;;;;;;;22.85;100.00;101110.44;5038554;28;20114;-54